Time;durP1;ratioP1;P1;durP2;ratioP2;P2;SDS_P1;SDS_P2;PMS_P1;PMS_P2;Temp;Humidity;BMP_temperature;BMP_pressure;BME280_temperature;BME280_humidity;BME280_pressure;Samples;Min_cycle;Max_cycle;Signal;HPM_P1;HPM_P2
2022/08/13 00:02:03;;;;;;;19.23;4.70;;;;;;;-144.47;41.95;53015.00;5078975;28;20024;-67
2022/08/13 00:04:30;;;;;;;8.77;3.58;;;;;;;-144.47;42.07;53015.00;5057309;28;20024;-67
2022/08/13 00:07:08;;;;;;;10.93;3.50;;;;;;;-144.47;42.29;53064.66;5075187;28;20031;-67
2022/08/13 00:09:39;;;;;;;14.50;3.90;;;;;;;-144.47;42.50;53040.81;5094956;28;20141;-67
2022/08/13 00:14:53;;;;;;;9.82;3.97;;;;;;;-144.47;43.00;53064.66;5110946;28;20042;-67
2022/08/13 00:17:20;;;;;;;6.85;3.47;;;;;;;-144.47;43.16;53054.72;5085837;28;20028;-65
2022/08/13 00:19:49;;;;;;;9.23;4.57;;;;;;;-144.47;43.19;53018.97;5089017;28;20023;-69
2022/08/13 00:22:16;;;;;;;12.05;3.65;;;;;;;-144.47;43.24;53058.69;5069958;22;20130;-70
2022/08/13 00:24:41;;;;;;;10.95;4.40;;;;;;;-144.47;43.36;53076.56;5040830;28;20473;-67
2022/08/13 00:27:06;;;;;;;14.10;3.92;;;;;;;-144.47;43.29;53068.63;5051222;28;20107;-70
2022/08/13 00:29:32;;;;;;;9.45;4.47;;;;;;;-144.47;43.42;53028.88;5070119;28;20107;-69
2022/08/13 00:31:57;;;;;;;10.48;4.18;;;;;;;-144.47;43.58;53052.72;5057888;28;20549;-67
2022/08/13 00:34:23;;;;;;;9.05;4.38;;;;;;;-144.47;43.67;53092.44;5038754;28;20028;-68
2022/08/13 00:36:48;;;;;;;12.57;5.03;;;;;;;-144.47;43.67;53030.88;5055898;28;20494;-69
2022/08/13 00:39:15;;;;;;;16.13;4.80;;;;;;;-144.47;43.73;53084.50;5053803;28;20028;-70
2022/08/13 00:41:46;;;;;;;10.93;4.35;;;;;;;-144.47;43.84;53080.53;5069032;28;20120;-70
2022/08/13 00:44:14;;;;;;;9.52;4.38;;;;;;;-144.47;43.83;53044.78;5068144;28;20031;-68
2022/08/13 00:46:40;;;;;;;16.38;4.00;;;;;;;-144.47;43.72;53044.78;5034586;28;20021;-72
2022/08/13 00:49:07;;;;;;;5.57;3.25;;;;;;;-144.47;43.79;53070.59;5074545;28;20083;-73
2022/08/13 00:51:35;;;;;;;6.72;3.42;;;;;;;-144.47;43.67;53068.63;5081853;28;20029;-70
2022/08/13 00:54:02;;;;;;;8.63;3.70;;;;;;;-144.47;43.74;53098.41;5042188;28;20039;-69
2022/08/13 00:56:31;;;;;;;10.13;3.70;;;;;;;-144.47;43.60;53080.53;5068861;28;20104;-72
2022/08/13 00:58:59;;;;;;;7.35;3.30;;;;;;;-144.47;43.69;53058.69;5069789;28;20024;-72
2022/08/13 01:01:25;;;;;;;5.60;3.30;;;;;;;-144.47;43.69;53050.75;5069097;28;20052;-71
2022/08/13 01:03:51;;;;;;;4.97;2.67;;;;;;;-144.47;43.71;53076.56;5051253;28;20027;-72
2022/08/13 01:06:18;;;;;;;12.85;3.42;;;;;;;-144.47;43.74;53060.66;5050964;28;20024;-70
2022/08/13 01:08:44;;;;;;;6.32;3.55;;;;;;;-144.47;43.81;53076.56;5051001;28;20075;-68
2022/08/13 01:11:11;;;;;;;9.68;3.67;;;;;;;-144.47;43.96;53064.66;5050719;28;20016;-69
2022/08/13 01:13:39;;;;;;;8.47;3.60;;;;;;;-144.47;44.01;53062.66;5049300;28;20032;-72
2022/08/13 01:16:13;;;;;;;14.15;4.00;;;;;;;-144.47;44.23;53048.75;5082084;28;20024;-68
2022/08/13 01:18:42;;;;;;;9.32;3.45;;;;;;;-144.47;44.22;53064.66;5074065;28;20103;-72
2022/08/13 01:21:33;;;;;;;7.00;3.25;;;;;;;-144.47;44.40;53084.50;5026012;28;20470;-68
2022/08/13 01:23:59;;;;;;;7.65;3.25;;;;;;;-144.47;44.41;53082.53;5054172;28;20040;-71
2022/08/13 01:26:25;;;;;;;13.63;3.58;;;;;;;-144.47;44.47;53050.75;5050878;28;20028;-70
2022/08/13 01:28:51;;;;;;;7.60;4.07;;;;;;;-144.47;44.49;53072.59;5051168;28;20441;-71
2022/08/13 01:31:18;;;;;;;8.10;3.60;;;;;;;-144.47;44.53;53046.75;5069272;28;20034;-69
2022/08/13 01:33:47;;;;;;;6.78;3.40;;;;;;;-144.47;44.77;53078.53;5068895;28;20024;-68
2022/08/13 01:36:12;;;;;;;7.45;3.53;;;;;;;-144.47;44.76;53082.53;5069305;28;20457;-69
2022/08/13 01:38:40;;;;;;;6.85;3.60;;;;;;;-144.47;44.82;53102.38;5017931;28;20123;-69
2022/08/13 01:41:08;;;;;;;11.97;3.83;;;;;;;-144.47;44.86;53098.41;5051171;28;20035;-73
2022/08/13 01:43:36;;;;;;;8.98;3.67;;;;;;;-144.47;44.92;53058.69;5068997;28;20670;-71
2022/08/13 01:46:02;;;;;;;5.90;3.00;;;;;;;-144.47;44.92;53050.75;5054593;28;20051;-70
2022/08/13 01:51:21;;;;;;;17.45;6.15;;;;;;;-144.47;45.33;53078.53;5088968;28;20117;-71
2022/08/13 01:53:52;;;;;;;47.22;12.98;;;;;;;-144.47;45.50;53028.88;5055688;28;20071;-73
2022/08/13 01:56:21;;;;;;;60.63;17.95;;;;;;;-144.47;45.61;53062.66;5089086;28;20024;-72
2022/08/13 01:58:53;;;;;;;84.28;22.50;;;;;;;-144.47;45.76;53098.41;5089205;28;20024;-70
2022/08/13 02:01:25;;;;;;;76.07;22.67;;;;;;;-144.47;45.87;53074.56;5088801;28;20023;-72
2022/08/13 02:03:52;;;;;;;50.53;17.25;;;;;;;-144.47;46.02;53058.69;5067376;28;20393;-68
2022/08/13 02:06:26;;;;;;;65.65;18.92;;;;;;;-144.47;46.32;53076.56;5051066;28;20034;-70
2022/08/13 02:08:59;;;;;;;41.28;12.00;;;;;;;-144.47;46.40;53092.44;5068519;28;20021;-71
2022/08/13 02:11:32;;;;;;;34.75;11.93;;;;;;;-144.47;46.52;53106.34;5069085;28;20039;-70
2022/08/13 02:13:59;;;;;;;31.77;7.90;;;;;;;-144.47;46.70;53082.53;5069401;28;20029;-68
2022/08/13 02:16:28;;;;;;;34.25;9.10;;;;;;;-144.47;46.96;53080.53;5068824;28;20036;-70
2022/08/13 02:18:54;;;;;;;22.75;7.07;;;;;;;-144.47;47.13;53074.56;5050385;28;20416;-69
2022/08/13 02:21:22;;;;;;;17.38;6.28;;;;;;;-144.47;47.14;53048.75;5051042;28;20027;-66
2022/08/13 02:23:58;;;;;;;21.80;6.93;;;;;;;-144.47;47.09;53080.53;5068402;28;20027;-71
2022/08/13 02:26:24;;;;;;;26.58;8.25;;;;;;;-144.47;47.42;53122.25;5051577;28;20358;-67
2022/08/13 02:28:51;;;;;;;27.42;8.32;;;;;;;-144.47;47.38;53084.50;5054451;28;20489;-69
2022/08/13 02:31:18;;;;;;;22.05;8.00;;;;;;;-144.47;47.64;53048.75;5054277;28;20024;-66
2022/08/13 02:33:43;;;;;;;23.27;7.07;;;;;;;-144.47;47.84;53094.44;5075610;28;20029;-69
2022/08/13 02:36:10;;;;;;;28.38;9.95;;;;;;;-144.47;47.80;53102.38;5073986;28;20393;-71
2022/08/13 02:38:39;;;;;;;31.35;9.48;;;;;;;-144.47;48.00;53092.44;5092377;28;20185;-72
2022/08/13 02:43:50;;;;;;;23.63;8.30;;;;;;;-144.47;48.01;53120.25;5058028;28;19962;-71
2022/08/13 02:46:16;;;;;;;21.10;7.28;;;;;;;-144.47;48.09;53106.34;5053956;28;20037;-72
2022/08/13 02:48:42;;;;;;;21.92;8.00;;;;;;;-144.47;48.14;53080.53;5071784;28;20083;-72
2022/08/13 02:51:10;;;;;;;32.28;8.40;;;;;;;-144.47;48.51;53106.34;5053920;28;20119;-71
2022/08/13 02:53:37;;;;;;;31.73;8.85;;;;;;;-144.47;48.60;53122.25;5054400;28;20058;-71
2022/08/13 02:56:05;;;;;;;27.85;8.85;;;;;;;-144.47;48.54;53114.31;5054560;28;20025;-72
2022/08/13 02:58:30;;;;;;;29.92;7.13;;;;;;;-144.47;48.56;53110.31;5054258;28;20028;-69
2022/08/13 03:00:57;;;;;;;34.17;8.27;;;;;;;-144.47;48.70;53096.41;5054005;28;20105;-71
2022/08/13 03:03:25;;;;;;;18.98;6.57;;;;;;;-144.47;48.82;53084.50;5053515;28;20044;-69
2022/08/13 03:05:50;;;;;;;17.02;6.53;;;;;;;-144.47;49.02;53086.50;5054362;28;20025;-68
2022/08/13 03:08:16;;;;;;;16.20;5.88;;;;;;;-144.47;48.96;53116.28;5071942;28;20167;-71
2022/08/13 03:10:41;;;;;;;17.15;5.70;;;;;;;-144.47;49.13;53098.41;5054503;28;20024;-70
2022/08/13 03:13:16;;;;;;;19.88;6.57;;;;;;;-144.47;49.31;53118.28;5072126;28;20074;-71
2022/08/13 03:15:46;;;;;;;35.85;11.02;;;;;;;-144.47;49.26;53102.38;5072127;28;20028;-67
2022/08/13 03:18:12;;;;;;;42.00;12.57;;;;;;;-144.47;49.52;53084.50;5053114;28;20020;-70
2022/08/13 03:20:39;;;;;;;29.33;10.85;;;;;;;-144.47;49.62;53104.38;5071257;28;20027;-72
2022/08/13 03:23:08;;;;;;;53.10;14.85;;;;;;;-144.47;49.51;53096.41;5053135;28;20035;-70
2022/08/13 03:25:34;;;;;;;54.58;16.30;;;;;;;-144.47;49.56;53116.28;5037200;28;20017;-69
2022/08/13 03:28:01;;;;;;;65.72;20.05;;;;;;;-144.47;49.74;53138.13;5070967;28;20031;-72
2022/08/13 03:30:27;;;;;;;46.65;14.60;;;;;;;-144.47;50.04;53094.44;5053321;28;20048;-69
2022/08/13 03:32:53;;;;;;;33.67;10.55;;;;;;;-144.47;50.07;53062.66;5061392;28;20032;-69
2022/08/13 03:35:24;;;;;;;58.13;17.80;;;;;;;-144.47;49.90;53110.31;5052841;28;20032;-71
2022/08/13 03:37:55;;;;;;;38.88;12.40;;;;;;;-144.47;50.17;53056.69;5070117;28;20104;-70
2022/08/13 03:40:24;;;;;;;36.53;10.77;;;;;;;-144.47;50.42;53114.31;5036097;28;20021;-68
2022/08/13 03:42:50;;;;;;;41.25;11.45;;;;;;;-144.47;50.48;53090.47;5070863;28;20024;-70
2022/08/13 03:45:18;;;;;;;24.60;10.43;;;;;;;-144.47;50.39;53134.16;5070845;28;20024;-72
2022/08/13 03:47:44;;;;;;;21.35;6.57;;;;;;;-144.47;50.44;53122.25;5052227;28;20034;-71
2022/08/13 03:50:13;;;;;;;16.88;5.50;;;;;;;-144.47;50.42;53138.13;5070638;28;20026;-71
2022/08/13 03:52:39;;;;;;;13.45;6.03;;;;;;;-144.47;50.49;53114.31;5070382;28;20036;-67
2022/08/13 03:55:11;;;;;;;14.10;6.22;;;;;;;-144.47;50.67;53094.44;5052735;28;20594;-69
2022/08/13 03:57:40;;;;;;;25.00;7.18;;;;;;;-144.47;50.80;53082.53;5052115;28;20390;-70
2022/08/13 04:00:11;;;;;;;19.15;6.85;;;;;;;-144.47;50.76;53104.38;5036164;28;20029;-71
2022/08/13 04:02:41;;;;;;;17.40;7.25;;;;;;;-144.47;50.75;53112.31;5048833;28;20052;-70
2022/08/13 04:05:13;;;;;;;21.42;8.18;;;;;;;-144.47;50.57;53108.34;5050014;28;20023;-69
2022/08/13 04:07:39;;;;;;;30.05;7.45;;;;;;;-144.47;50.80;53094.44;5052951;28;20124;-70
2022/08/13 04:10:06;;;;;;;26.30;8.45;;;;;;;-144.47;50.95;53126.22;5069964;28;20040;-71
2022/08/13 04:12:31;;;;;;;30.77;9.88;;;;;;;-144.47;50.88;53138.13;5070053;28;20024;-68
2022/08/13 04:14:57;;;;;;;37.33;11.07;;;;;;;-144.47;50.92;53084.50;5070733;28;20032;-68
2022/08/13 04:17:22;;;;;;;12.55;4.30;;;;;;;-144.47;51.04;53126.22;5071315;28;20371;-70
2022/08/13 04:19:48;;;;;;;9.48;4.32;;;;;;;-144.47;50.85;53130.19;5071091;28;20418;-71
2022/08/13 04:22:13;;;;;;;14.35;4.13;;;;;;;-144.47;50.87;53086.50;5072376;28;20054;-69
2022/08/13 04:24:39;;;;;;;7.28;3.95;;;;;;;-144.47;50.87;53102.38;5070668;28;20024;-70
2022/08/13 04:27:05;;;;;;;9.70;3.78;;;;;;;-144.47;50.96;53096.41;5051860;28;20043;-71
2022/08/13 04:29:31;;;;;;;27.60;9.23;;;;;;;-144.47;50.77;53074.56;5069580;28;20028;-67
2022/08/13 04:31:59;;;;;;;16.65;5.22;;;;;;;-144.47;50.82;53108.34;5069820;28;20074;-66
2022/08/13 04:34:26;;;;;;;7.60;3.47;;;;;;;-144.47;50.57;53106.34;5069541;28;20025;-72
2022/08/13 04:36:52;;;;;;;10.93;4.47;;;;;;;-144.47;50.43;53096.41;5057817;28;20028;-69
2022/08/13 04:39:19;;;;;;;10.05;3.72;;;;;;;-144.47;50.14;53074.56;5068510;28;20016;-67
2022/08/13 04:41:45;;;;;;;8.20;4.10;;;;;;;-144.47;49.94;53110.31;5056471;28;20111;-70
2022/08/13 04:44:11;;;;;;;7.28;3.78;;;;;;;-144.47;49.75;53100.41;5036575;28;20036;-70
2022/08/13 04:46:37;;;;;;;13.68;4.25;;;;;;;-144.47;49.66;53138.13;5029461;28;20059;-68
2022/08/13 04:49:02;;;;;;;33.70;11.55;;;;;;;-144.47;49.88;53076.56;5065913;28;20429;-68
2022/08/13 04:51:31;;;;;;;33.53;10.48;;;;;;;-144.47;49.94;53078.53;5061695;28;20557;-67
2022/08/13 04:53:57;;;;;;;18.25;5.40;;;;;;;-144.47;49.92;53108.34;5044903;28;20052;-69
2022/08/13 04:56:22;;;;;;;18.15;7.00;;;;;;;-144.47;49.85;53140.13;5024906;28;20055;-69
2022/08/13 04:58:47;;;;;;;26.08;7.80;;;;;;;-144.47;50.01;53124.22;5070881;28;20058;-68
2022/08/13 05:01:13;;;;;;;17.00;6.70;;;;;;;-144.47;49.81;53134.16;5070911;28;20409;-71
2022/08/13 05:03:41;;;;;;;7.45;4.28;;;;;;;-144.47;49.69;53144.09;5089282;28;20111;-69
2022/08/13 05:06:11;;;;;;;10.98;3.90;;;;;;;-144.47;49.57;53094.44;5089137;28;20572;-68
2022/08/13 05:08:39;;;;;;;9.27;4.18;;;;;;;-144.47;49.38;53112.31;5054578;28;20028;-70
2022/08/13 05:11:06;;;;;;;20.93;7.03;;;;;;;-144.47;49.74;53130.19;5071112;28;20024;-70
2022/08/13 05:13:36;;;;;;;39.85;11.80;;;;;;;-144.47;49.64;53118.28;5089161;28;20393;-68
2022/08/13 05:16:04;;;;;;;40.50;11.65;;;;;;;-144.47;49.06;53102.38;5071000;28;20660;-68
2022/08/13 05:18:32;;;;;;;42.17;13.63;;;;;;;-144.47;49.23;53094.44;5057655;28;20050;-68
2022/08/13 05:21:01;;;;;;;49.92;13.15;;;;;;;-144.47;49.56;53054.72;5068523;28;20520;-71
2022/08/13 05:23:27;;;;;;;14.85;6.22;;;;;;;-144.47;50.14;53090.47;5068906;28;20066;-73
2022/08/13 05:25:53;;;;;;;20.20;6.90;;;;;;;-144.47;50.72;53126.22;5069041;28;20025;-73
2022/08/13 05:28:19;;;;;;;20.08;7.65;;;;;;;-144.47;50.21;53106.34;5069053;28;20028;-71
2022/08/13 05:30:47;;;;;;;29.00;8.65;;;;;;;-144.47;50.08;53076.56;5050624;28;20571;-69
2022/08/13 05:33:21;;;;;;;19.88;8.93;;;;;;;-144.47;50.13;53098.41;5019256;28;20371;-69
2022/08/13 05:35:52;;;;;;;11.32;4.72;;;;;;;-144.47;49.59;53054.72;5068592;28;20501;-68
2022/08/13 05:38:22;;;;;;;15.02;4.70;;;;;;;-144.47;49.57;53102.38;5050235;28;20113;-72
2022/08/13 05:40:49;;;;;;;20.05;5.43;;;;;;;-144.47;49.56;53126.22;5051313;28;20028;-73
2022/08/13 05:43:21;;;;;;;7.43;4.10;;;;;;;-144.47;49.37;53108.34;5068712;28;20454;-69
2022/08/13 05:45:57;;;;;;;10.52;4.68;;;;;;;-144.47;49.11;53084.50;5068941;28;20025;-68
2022/08/13 05:48:27;;;;;;;12.45;4.60;;;;;;;-144.47;48.91;53084.50;5052006;28;20025;-68
2022/08/13 05:50:54;;;;;;;10.02;4.43;;;;;;;-144.47;48.71;53106.34;5067623;28;20470;-70
2022/08/13 05:53:21;;;;;;;8.50;4.45;;;;;;;-144.47;48.56;53064.66;5050416;28;20078;-69
2022/08/13 05:55:47;;;;;;;7.30;4.25;;;;;;;-144.47;48.46;53102.38;5068523;28;20025;-71
2022/08/13 05:58:13;;;;;;;9.32;3.88;;;;;;;-144.47;48.58;53106.34;5067110;28;20036;-70
2022/08/13 06:03:25;;;;;;;8.82;4.18;;;;;;;-144.47;48.60;53080.53;5059580;28;20124;-70
2022/08/13 06:05:55;;;;;;;11.13;5.03;;;;;;;-144.47;48.50;53082.53;5038266;28;20111;-68
2022/08/13 06:08:24;;;;;;;10.82;4.72;;;;;;;-144.47;48.46;53082.53;5055169;28;20379;-71
2022/08/13 06:10:49;;;;;;;;;;;;;;;-144.47;48.50;53086.50;5043470;28;20504;-71
2022/08/13 06:13:16;;;;;;;9.15;4.25;;;;;;;-144.47;48.25;53094.44;5073583;28;19924;-71
2022/08/13 06:15:43;;;;;;;9.30;4.25;;;;;;;-144.47;48.37;53076.56;5072698;28;20025;-71
2022/08/13 06:18:11;;;;;;;9.68;4.50;;;;;;;-144.47;48.21;53130.19;5072706;28;20039;-68
2022/08/13 06:20:36;;;;;;;9.50;4.30;;;;;;;-144.47;48.04;53082.53;5037785;28;20478;-68
2022/08/13 06:23:03;;;;;;;13.40;4.40;;;;;;;-144.47;47.91;53074.56;5091131;22;20063;-66
2022/08/13 06:25:29;;;;;;;10.50;4.53;;;;;;;-144.47;47.55;53066.63;5037463;28;20017;-66
2022/08/13 06:28:00;;;;;;;10.43;4.63;;;;;;;-144.47;46.99;53090.47;5073787;28;20394;-66
2022/08/13 06:30:27;;;;;;;17.48;5.18;;;;;;;-144.47;46.80;53118.28;5049528;28;20460;-67
2022/08/13 06:33:02;;;;;;;9.20;3.92;;;;;;;-144.47;46.55;53110.31;5049584;28;20112;-67
2022/08/13 06:35:28;;;;;;;19.45;6.00;;;;;;;-144.47;46.33;53078.53;5064575;28;20025;-67
2022/08/13 06:37:54;;;;;;;11.75;5.13;;;;;;;-144.47;46.49;53054.72;5052300;28;20070;-65
2022/08/13 06:40:22;;;;;;;10.45;4.30;;;;;;;-144.47;46.26;53058.69;5051711;28;20104;-64
2022/08/13 06:42:48;;;;;;;7.97;4.50;;;;;;;-144.47;46.26;53104.38;5065597;28;20103;-66
2022/08/13 06:45:15;;;;;;;12.45;4.13;;;;;;;-144.47;46.17;53076.56;5069956;28;20067;-67
2022/08/13 06:47:41;;;;;;;9.05;3.80;;;;;;;-144.47;46.15;53086.50;5071555;28;20028;-66
2022/08/13 06:50:10;;;;;;;11.60;4.90;;;;;;;-144.47;46.04;53098.41;5037548;28;20103;-66
2022/08/13 06:52:37;;;;;;;9.73;4.28;;;;;;;-144.47;45.91;53036.84;5057836;28;20530;-67
2022/08/13 06:55:04;;;;;;;7.55;3.75;;;;;;;-144.47;45.88;53060.66;5059049;28;20044;-66
2022/08/13 06:57:31;;;;;;;8.05;4.05;;;;;;;-144.47;45.82;53116.28;5045126;28;20044;-65
2022/08/13 06:59:57;;;;;;;8.85;4.00;;;;;;;-144.47;45.80;53070.59;5053062;28;20055;-67
2022/08/13 07:02:24;;;;;;;13.55;4.03;;;;;;;-144.47;45.58;53074.56;5033279;28;20482;-67
2022/08/13 07:04:54;;;;;;;10.65;4.70;;;;;;;-144.47;45.45;53078.53;5054942;28;20020;-67
2022/08/13 07:07:20;;;;;;;8.25;4.07;;;;;;;-144.47;45.34;53054.72;5064115;28;20105;-67
2022/08/13 07:09:46;;;;;;;9.90;4.35;;;;;;;-144.47;45.25;53080.53;5068930;28;20579;-66
2022/08/13 07:12:12;;;;;;;9.13;4.90;;;;;;;-144.47;44.93;53064.66;5071727;28;20020;-67
2022/08/13 07:14:41;;;;;;;11.73;4.20;;;;;;;-144.47;44.97;53062.66;5056432;28;20021;-67
2022/08/13 07:17:07;;;;;;;13.82;4.65;;;;;;;-144.47;45.01;53070.59;5034779;28;20025;-66
2022/08/13 07:19:33;;;;;;;8.75;4.45;;;;;;;-144.47;44.81;53052.72;5052825;28;20059;-66
2022/08/13 07:21:58;;;;;;;8.38;4.32;;;;;;;-144.47;44.54;53048.75;5032929;28;20035;-66
2022/08/13 07:24:26;;;;;;;20.65;4.55;;;;;;;-144.47;44.58;53052.72;5051092;28;20095;-67
2022/08/13 07:26:59;;;;;;;16.40;4.10;;;;;;;-144.47;44.35;53052.72;5055981;28;20587;-66
2022/08/13 07:29:26;;;;;;;11.63;4.65;;;;;;;-144.47;44.63;53060.66;5057158;28;20541;-67
2022/08/13 07:31:53;;;;;;;9.93;4.68;;;;;;;-144.47;44.57;53054.72;5055076;28;20094;-66
2022/08/13 07:34:19;;;;;;;17.23;4.60;;;;;;;-144.47;44.21;53054.72;5052833;28;20618;-67
2022/08/13 07:36:44;;;;;;;10.02;4.00;;;;;;;-144.47;44.16;53058.69;5070076;28;20024;-64
2022/08/13 07:39:12;;;;;;;15.20;5.10;;;;;;;-144.47;44.19;53038.81;5032629;28;20374;-66
2022/08/13 07:41:42;;;;;;;9.25;5.10;;;;;;;-144.47;44.26;53040.81;5030481;28;20039;-66
2022/08/13 07:44:20;;;;;;;10.70;4.88;;;;;;;-144.47;43.92;53064.66;5042942;28;20024;-64
2022/08/13 07:46:46;;;;;;;14.32;5.55;;;;;;;-144.47;44.06;53054.72;5042543;28;20111;-65
2022/08/13 07:49:13;;;;;;;9.45;4.75;;;;;;;-144.47;43.94;53011.00;5043931;28;20035;-66
2022/08/13 07:51:41;;;;;;;7.72;4.90;;;;;;;-144.47;44.08;53036.84;5041900;28;20537;-65
2022/08/13 07:54:07;;;;;;;9.50;4.88;;;;;;;-144.47;43.75;53036.84;5048332;28;20032;-65
2022/08/13 07:56:34;;;;;;;12.70;5.15;;;;;;;-144.47;43.61;53060.66;5052018;28;20650;-65
2022/08/13 07:59:01;;;;;;;9.45;5.13;;;;;;;-144.47;43.17;53034.84;5043591;28;20025;-66
2022/08/13 08:01:27;;;;;;;15.88;5.35;;;;;;;-144.47;43.05;53056.69;5046433;28;20141;-66
2022/08/13 08:03:57;;;;;;;10.05;5.05;;;;;;;-144.47;43.10;53022.94;5048521;28;20020;-66
2022/08/13 08:06:24;;;;;;;8.32;5.30;;;;;;;-144.47;42.87;53018.97;5032287;28;20025;-65
2022/08/13 08:08:53;;;;;;;12.05;5.30;;;;;;;-144.47;43.17;53026.91;5048855;28;20524;-67
2022/08/13 08:14:04;;;;;;;8.82;5.97;;;;;;;-144.47;42.84;53036.84;5049396;28;20450;-67
2022/08/13 08:16:31;;;;;;;9.88;6.00;;;;;;;-144.47;43.14;53026.91;5068464;28;20056;-69
2022/08/13 08:19:00;;;;;;;13.57;5.55;;;;;;;-144.47;42.87;53036.84;5052549;28;20086;-68
2022/08/13 08:21:27;;;;;;;12.45;4.88;;;;;;;-144.47;42.72;53038.81;5028781;28;20037;-67
2022/08/13 08:23:59;;;;;;;14.23;6.13;;;;;;;-144.47;42.46;53044.78;5036210;28;20459;-68
2022/08/13 08:26:30;;;;;;;14.95;5.93;;;;;;;-144.47;42.63;53016.97;5034001;28;20013;-65
2022/08/13 08:28:57;;;;;;;8.88;5.60;;;;;;;-144.47;42.55;53028.88;5046977;28;20052;-67
2022/08/13 08:31:24;;;;;;;11.00;5.45;;;;;;;-144.47;42.42;53054.72;5047834;28;20024;-66
2022/08/13 08:33:50;;;;;;;11.10;5.63;;;;;;;-144.47;42.17;53018.97;5047015;28;20020;-68
2022/08/13 08:36:16;;;;;;;12.35;5.80;;;;;;;-144.47;41.80;52991.16;5028441;28;20052;-68
2022/08/13 08:44:23;;;;;;;11.93;5.80;;;;;;;-144.47;41.40;53026.91;5049266;28;20627;-67
2022/08/13 08:46:54;;;;;;;11.27;6.00;;;;;;;-144.47;41.84;53005.06;5046832;28;20051;-65
2022/08/13 08:49:21;;;;;;;14.60;5.53;;;;;;;-144.47;41.70;53009.03;5047203;28;20027;-68
2022/08/13 08:51:50;;;;;;;10.20;5.57;;;;;;;-144.47;41.60;53022.94;5047744;28;20663;-67
2022/08/13 08:54:18;;;;;;;11.23;5.38;;;;;;;-144.47;41.49;53040.81;5029867;28;20055;-66
2022/08/13 08:56:46;;;;;;;12.13;5.38;;;;;;;-144.47;41.20;53016.97;5046243;28;20087;-65
2022/08/13 08:59:13;;;;;;;9.13;5.68;;;;;;;-144.47;41.30;53026.91;5029221;28;20032;-64
2022/08/13 09:01:51;;;;;;;11.85;5.68;;;;;;;-144.47;41.15;53020.94;5029098;28;20494;-67
2022/08/13 09:04:18;;;;;;;11.90;5.93;;;;;;;-144.47;41.38;53018.97;5047462;28;20101;-66
2022/08/13 09:06:47;;;;;;;9.70;5.72;;;;;;;-144.47;41.06;53007.03;5047817;28;20040;-67
2022/08/13 09:09:13;;;;;;;;;;;;;;;-144.47;40.87;53044.78;5017787;28;20183;-67
2022/08/13 09:11:40;;;;;;;10.88;6.05;;;;;;;-144.47;40.50;53020.94;5046819;28;20520;-68
2022/08/13 09:14:08;;;;;;;8.45;5.65;;;;;;;-144.47;40.39;52971.28;5048156;28;20391;-67
2022/08/13 09:16:38;;;;;;;13.80;5.70;;;;;;;-144.47;40.49;53007.03;5030512;28;20024;-65
2022/08/13 09:19:08;;;;;;;11.90;5.45;;;;;;;-144.47;40.31;52975.25;5019505;28;20063;-66
2022/08/13 09:21:47;;;;;;;16.63;5.70;;;;;;;-144.47;39.91;53042.78;4991228;28;1121808;-66
2022/08/13 09:24:15;;;;;;;8.27;5.75;;;;;;;-144.47;40.16;53020.94;5030189;28;20390;-68
2022/08/13 09:26:51;;;;;;;10.52;5.07;;;;;;;-144.47;40.21;53022.94;5048339;28;20021;-67
2022/08/13 09:29:20;;;;;;;12.27;5.18;;;;;;;-144.47;40.46;53022.94;5031308;28;20476;-65
2022/08/13 09:31:50;;;;;;;12.55;5.95;;;;;;;-144.47;40.66;53007.03;5040432;28;20317;-66
2022/08/13 09:34:16;;;;;;;8.52;5.55;;;;;;;-144.47;40.71;53007.03;5040565;28;20519;-66
2022/08/13 09:36:43;;;;;;;9.05;5.70;;;;;;;-144.47;40.86;53011.00;5036423;28;20024;-67
2022/08/13 09:39:09;;;;;;;9.10;4.95;;;;;;;-144.47;40.68;52979.22;5073871;28;20103;-66
2022/08/13 09:41:48;;;;;;;10.25;5.25;;;;;;;-144.47;40.40;53013.00;5072948;28;20103;-69
2022/08/13 09:44:16;;;;;;;9.25;5.50;;;;;;;-144.47;40.15;53003.06;5055631;28;20051;-71
2022/08/13 09:46:42;;;;;;;9.50;5.55;;;;;;;-144.47;40.27;52997.09;5071521;28;20016;-72
2022/08/13 09:49:08;;;;;;;11.48;5.13;;;;;;;-144.47;40.26;53011.00;5073014;28;20029;-70
2022/08/13 09:51:37;;;;;;;12.25;5.50;;;;;;;-144.47;40.74;52995.13;5054750;28;20027;-70
2022/08/13 09:54:08;;;;;;;24.52;5.55;;;;;;;-144.47;41.15;53022.94;5038501;28;20032;-70
2022/08/13 09:56:37;;;;;;;13.75;6.25;;;;;;;-144.47;41.97;53032.88;5038273;28;20470;-70
2022/08/13 09:59:08;;;;;;;13.38;6.07;;;;;;;-144.47;42.50;53015.00;5055949;28;20025;-70
2022/08/13 10:01:34;;;;;;;12.00;6.22;;;;;;;-144.47;42.79;53030.88;5057360;28;20054;-70
2022/08/13 10:04:00;;;;;;;11.65;5.45;;;;;;;-144.47;42.86;53030.88;5053890;28;20017;-71
2022/08/13 10:06:28;;;;;;;12.07;5.65;;;;;;;-144.47;42.88;52999.09;5053850;28;20446;-70
2022/08/13 10:09:00;;;;;;;20.27;5.20;;;;;;;-144.47;43.08;52997.09;5044599;28;20021;-72
2022/08/13 10:11:28;;;;;;;12.55;5.60;;;;;;;-144.47;43.03;53064.66;5035587;28;20160;-71
2022/08/13 10:13:54;;;;;;;10.65;5.57;;;;;;;-144.47;43.05;53054.72;5035198;28;20106;-70
2022/08/13 10:16:21;;;;;;;17.38;5.75;;;;;;;-144.47;42.93;53052.72;5052719;28;20533;-71
2022/08/13 10:18:46;;;;;;;11.18;5.90;;;;;;;-144.47;42.88;53072.59;5039326;28;20033;-70
2022/08/13 10:21:12;;;;;;;9.40;5.35;;;;;;;-144.47;43.01;53026.91;5036354;28;20475;-71
2022/08/13 10:23:38;;;;;;;9.48;5.50;;;;;;;-144.47;42.81;53018.97;5034852;28;20033;-72
2022/08/13 10:26:03;;;;;;;12.00;5.85;;;;;;;-144.47;43.00;53024.91;5052649;28;20025;-70
2022/08/13 10:28:31;;;;;;;13.00;5.93;;;;;;;-144.47;42.84;53042.78;5051383;28;20021;-71
2022/08/13 10:31:09;;;;;;;11.50;5.78;;;;;;;-144.47;42.84;53038.81;5034224;28;20060;-70
2022/08/13 10:33:35;;;;;;;9.77;5.63;;;;;;;-144.47;42.54;53022.94;5051770;28;20052;-71
2022/08/13 10:36:00;;;;;;;14.32;6.40;;;;;;;-144.47;42.00;53018.97;5050151;28;20449;-72
2022/08/13 10:38:29;;;;;;;13.27;6.10;;;;;;;-144.47;41.63;53005.06;5051912;28;20037;-70
2022/08/13 10:41:07;;;;;;;15.82;5.65;;;;;;;-144.47;41.55;53036.84;5018069;28;20055;-70
2022/08/13 10:43:40;;;;;;;9.18;6.30;;;;;;;-144.47;41.08;52999.09;5051043;28;20025;-71
2022/08/13 10:46:11;;;;;;;9.82;6.15;;;;;;;-144.47;41.07;53007.03;5050721;28;20032;-72
2022/08/13 10:48:38;;;;;;;14.88;6.40;;;;;;;-144.47;41.05;53028.88;5052461;28;20132;-70
2022/08/13 10:51:04;;;;;;;12.20;7.22;;;;;;;-144.47;40.87;53024.91;5052044;28;20028;-71
2022/08/13 10:56:15;;;;;;;14.10;7.25;;;;;;;-144.47;40.20;52991.16;5051763;28;20406;-70
2022/08/13 10:58:41;;;;;;;11.43;6.57;;;;;;;-144.47;40.41;53011.00;5035583;28;20525;-70
2022/08/13 11:01:06;;;;;;;11.00;5.97;;;;;;;-144.47;40.78;52999.09;5071336;28;20055;-70
2022/08/13 11:03:33;;;;;;;10.48;6.50;;;;;;;-144.47;40.90;53009.03;5020122;28;20098;-70
2022/08/13 11:06:00;;;;;;;10.95;5.97;;;;;;;-144.47;40.71;53020.94;5072040;28;20040;-72
2022/08/13 11:08:36;;;;;;;11.10;6.22;;;;;;;-144.47;41.15;53013.00;5046524;28;20566;-71
2022/08/13 11:11:06;;;;;;;14.63;6.18;;;;;;;-144.47;41.18;52983.22;5045912;28;20088;-72
2022/08/13 11:13:32;;;;;;;13.07;5.95;;;;;;;-144.47;41.41;53011.00;5071628;28;20035;-72
2022/08/13 11:16:00;;;;;;;12.05;6.05;;;;;;;-144.47;41.40;53018.97;5071999;28;20391;-73
2022/08/13 11:18:28;;;;;;;11.00;6.50;;;;;;;-144.47;41.66;53046.75;5071594;28;20031;-71
2022/08/13 11:21:02;;;;;;;10.02;6.38;;;;;;;-144.47;41.87;53032.88;5053642;28;20103;-72
2022/08/13 11:23:29;;;;;;;9.02;5.45;;;;;;;-144.47;41.57;53018.97;5054429;28;20173;-72
2022/08/13 11:25:55;;;;;;;10.40;5.63;;;;;;;-144.47;41.17;53020.94;5071632;28;20043;-70
2022/08/13 11:28:21;;;;;;;10.38;5.50;;;;;;;-144.47;40.71;53044.78;5071079;28;20426;-70
2022/08/13 11:30:51;;;;;;;11.20;5.65;;;;;;;-144.47;40.58;52989.16;5070820;28;20017;-70
2022/08/13 11:33:19;;;;;;;11.73;6.05;;;;;;;-144.47;40.67;53020.94;5020144;28;20036;-70
2022/08/13 11:35:44;;;;;;;9.05;5.68;;;;;;;-144.47;40.85;52995.13;5032709;28;20132;-70
2022/08/13 11:38:13;;;;;;;10.70;6.00;;;;;;;-144.47;40.42;52965.34;5032307;28;20059;-71